createdAt,value
2023-05-10T00:02:00.341Z,8.82
2023-05-10T00:04:28.633Z,4.95
2023-05-10T00:06:56.818Z,8.50
2023-05-10T00:09:24.727Z,7.15
2023-05-10T00:11:54.051Z,5.35
2023-05-10T00:14:22.579Z,6.82
2023-05-10T00:16:51.228Z,8.68
2023-05-10T00:19:20.712Z,6.35
2023-05-10T00:21:48.831Z,9.45
2023-05-10T00:24:20.548Z,8.70
2023-05-10T00:26:48.717Z,6.63
2023-05-10T00:29:48.982Z,6.80
2023-05-10T00:32:18.381Z,5.22
2023-05-10T00:34:46.959Z,7.00
2023-05-10T00:37:15.016Z,7.88
2023-05-10T00:39:49.092Z,8.05
2023-05-10T00:42:17.114Z,9.98
2023-05-10T00:44:45.193Z,8.57
2023-05-10T00:47:13.370Z,6.88
2023-05-10T00:49:42.808Z,8.07
2023-05-10T00:52:10.997Z,6.60
2023-05-10T00:54:39.221Z,10.05
2023-05-10T00:57:08.028Z,6.07
2023-05-10T00:59:36.561Z,7.30
2023-05-10T01:02:05.059Z,7.45
2023-05-10T01:04:56.542Z,9.30
2023-05-10T01:07:27.449Z,13.43
2023-05-10T01:09:56.156Z,9.32
2023-05-10T01:12:24.132Z,12.60
2023-05-10T01:14:56.056Z,9.60
2023-05-10T01:17:24.738Z,12.07
2023-05-10T01:19:52.854Z,10.70
2023-05-10T01:22:31.948Z,8.15
2023-05-10T01:25:23.582Z,9.95
2023-05-10T01:27:57.727Z,7.22
2023-05-10T01:31:02.227Z,7.35
2023-05-10T01:33:50.635Z,9.68
2023-05-10T01:36:33.939Z,7.93
2023-05-10T01:39:30.334Z,7.82
2023-05-10T01:42:07.518Z,9.32
2023-05-10T01:44:51.795Z,8.57
2023-05-10T01:47:43.846Z,13.55
2023-05-10T01:50:17.211Z,8.32
2023-05-10T01:52:49.327Z,10.35
2023-05-10T01:55:19.623Z,8.30
2023-05-10T01:57:48.390Z,11.52
2023-05-10T02:00:16.670Z,10.95
2023-05-10T02:02:50.086Z,12.98
2023-05-10T02:05:18.378Z,14.48
2023-05-10T02:07:46.728Z,12.73
2023-05-10T02:10:15.443Z,13.98
2023-05-10T02:13:03.945Z,15.27
2023-05-10T02:15:35.317Z,14.73
2023-05-10T02:18:03.380Z,14.82
2023-05-10T02:20:31.989Z,10.82
2023-05-10T02:23:01.950Z,11.50
2023-05-10T02:25:32.931Z,19.73
2023-05-10T02:28:05.051Z,16.42
2023-05-10T02:30:33.730Z,13.40
2023-05-10T02:33:03.232Z,14.60
2023-05-10T02:35:34.703Z,12.73
2023-05-10T02:38:04.518Z,15.18
2023-05-10T02:40:34.001Z,18.20
2023-05-10T02:43:03.819Z,15.88
2023-05-10T02:45:33.200Z,19.00
2023-05-10T02:48:01.738Z,23.20
2023-05-10T02:50:30.679Z,22.60
2023-05-10T02:53:03.572Z,20.30
2023-05-10T02:55:39.216Z,23.00
2023-05-10T02:58:11.307Z,19.70
2023-05-10T03:00:41.094Z,17.17
2023-05-10T03:03:10.509Z,19.85
2023-05-10T03:05:41.933Z,14.80
2023-05-10T03:08:10.422Z,19.67
2023-05-10T03:11:01.712Z,20.15
2023-05-10T03:13:36.578Z,14.07
2023-05-10T03:16:19.227Z,14.27
2023-05-10T03:18:48.211Z,13.45
2023-05-10T03:21:17.583Z,16.05
2023-05-10T03:24:05.926Z,13.57
2023-05-10T03:26:34.986Z,11.88
2023-05-10T03:29:31.998Z,17.02
2023-05-10T03:32:04.596Z,16.58
2023-05-10T03:34:37.413Z,15.00
2023-05-10T03:37:06.202Z,14.23
2023-05-10T03:39:35.753Z,17.02
2023-05-10T03:42:06.246Z,11.13
2023-05-10T03:44:37.049Z,15.95
2023-05-10T03:47:07.979Z,11.75
2023-05-10T03:49:36.412Z,13.57
2023-05-10T03:52:05.126Z,11.80
2023-05-10T03:54:33.774Z,15.60
2023-05-10T03:57:02.396Z,12.32
2023-05-10T03:59:32.623Z,8.63
2023-05-10T04:02:02.627Z,20.42
2023-05-10T04:04:31.861Z,7.38
2023-05-10T04:07:01.471Z,10.40
2023-05-10T04:09:30.415Z,9.20
2023-05-10T04:11:59.602Z,7.88
2023-05-10T04:14:33.851Z,8.70
2023-05-10T04:17:02.284Z,7.65
2023-05-10T04:19:34.510Z,10.85
2023-05-10T04:22:04.028Z,8.98
2023-05-10T04:24:32.124Z,10.57
2023-05-10T04:26:59.936Z,6.80
2023-05-10T04:29:28.232Z,11.20
2023-05-10T04:31:57.771Z,10.00
2023-05-10T04:34:28.021Z,7.82
2023-05-10T04:36:57.434Z,4.57
2023-05-10T04:39:25.573Z,6.82
2023-05-10T04:41:56.048Z,7.38
2023-05-10T04:44:25.346Z,5.13
2023-05-10T04:46:53.233Z,3.95
2023-05-10T04:49:24.450Z,5.68
2023-05-10T04:51:53.245Z,4.00
2023-05-10T04:54:21.302Z,6.15
2023-05-10T04:56:49.486Z,6.53
2023-05-10T04:59:18.417Z,6.45
2023-05-10T05:01:47.448Z,5.30
2023-05-10T05:04:17.019Z,6.00
2023-05-10T05:06:45.358Z,5.93
2023-05-10T05:09:14.558Z,2.50
2023-05-10T05:11:43.960Z,2.67
2023-05-10T05:14:12.111Z,3.13
2023-05-10T05:16:41.745Z,5.30
2023-05-10T05:19:10.457Z,4.72
2023-05-10T05:21:38.453Z,6.20
2023-05-10T05:24:06.995Z,3.92
2023-05-10T05:26:35.096Z,3.22
2023-05-10T05:29:04.405Z,3.20
2023-05-10T05:31:34.073Z,6.90
2023-05-10T05:34:02.720Z,2.45
2023-05-10T05:36:32.775Z,4.50
2023-05-10T05:39:01.882Z,4.65
2023-05-10T05:41:30.363Z,3.58
2023-05-10T05:43:58.564Z,3.25
2023-05-10T05:46:26.914Z,3.53
2023-05-10T05:48:55.329Z,3.88
2023-05-10T05:51:24.791Z,4.50
2023-05-10T05:53:52.794Z,1.80
2023-05-10T05:56:26.808Z,4.10
2023-05-10T05:59:15.204Z,3.15
2023-05-10T06:01:43.577Z,1.80
2023-05-10T06:04:12.437Z,4.78
2023-05-10T06:06:41.175Z,2.25
2023-05-10T06:09:09.793Z,3.38
2023-05-10T06:11:39.411Z,3.25
2023-05-10T06:14:08.978Z,3.97
2023-05-10T06:16:37.710Z,2.33
2023-05-10T06:19:06.290Z,2.28
2023-05-10T06:21:34.850Z,3.40
2023-05-10T06:24:04.730Z,4.38
2023-05-10T06:26:33.531Z,5.07
2023-05-10T06:29:02.676Z,2.40
2023-05-10T06:31:43.924Z,2.40
2023-05-10T06:34:33.483Z,5.13
2023-05-10T06:37:04.665Z,4.35
2023-05-10T06:39:35.882Z,2.15
2023-05-10T06:42:05.712Z,1.77
2023-05-10T06:45:07.751Z,3.65
2023-05-10T06:47:38.763Z,4.78
2023-05-10T06:50:09.061Z,2.65
2023-05-10T06:52:40.060Z,3.42
2023-05-10T06:55:17.688Z,3.25
2023-05-10T06:57:46.470Z,7.60
2023-05-10T07:00:34.747Z,2.35
2023-05-10T07:03:02.954Z,3.67
2023-05-10T07:05:31.325Z,8.63
2023-05-10T07:08:03.109Z,7.13
2023-05-10T07:10:31.463Z,2.72
2023-05-10T07:12:59.727Z,3.95
2023-05-10T07:15:30.170Z,3.15
2023-05-10T07:17:58.567Z,5.78
2023-05-10T07:20:26.756Z,3.40
2023-05-10T07:22:57.745Z,4.93
2023-05-10T07:25:26.469Z,3.00
2023-05-10T07:27:54.680Z,2.13
2023-05-10T07:30:25.367Z,4.88
2023-05-10T07:33:01.741Z,2.13
2023-05-10T07:35:30.065Z,3.55
2023-05-10T07:38:02.259Z,1.65
2023-05-10T07:41:03.349Z,7.93
2023-05-10T07:43:41.102Z,2.45
2023-05-10T07:46:11.520Z,2.17
2023-05-10T07:49:14.406Z,4.72
2023-05-10T07:51:43.900Z,2.85
2023-05-10T07:54:44.184Z,3.58
2023-05-10T07:57:19.819Z,1.90
2023-05-10T07:59:50.659Z,2.85
2023-05-10T08:02:19.324Z,4.03
2023-05-10T08:04:47.835Z,2.30
2023-05-10T08:07:16.635Z,2.13
2023-05-10T08:09:45.711Z,3.45
2023-05-10T08:12:17.495Z,6.82
2023-05-10T08:15:11.942Z,3.05
2023-05-10T08:17:40.977Z,3.97
2023-05-10T08:20:09.444Z,4.30
2023-05-10T08:22:38.577Z,3.38
2023-05-10T08:25:09.374Z,6.18
2023-05-10T08:27:38.046Z,2.60
2023-05-10T08:30:08.314Z,2.65
2023-05-10T08:32:40.672Z,4.35
2023-05-10T08:35:10.616Z,1.63
2023-05-10T08:37:41.202Z,2.42
2023-05-10T08:40:13.066Z,2.70
2023-05-10T08:42:42.205Z,4.38
2023-05-10T08:45:16.005Z,3.97
2023-05-10T08:47:48.231Z,5.40
2023-05-10T08:50:28.283Z,6.55
2023-05-10T08:53:15.703Z,3.50
2023-05-10T08:55:53.342Z,8.25
2023-05-10T08:58:54.545Z,4.40
2023-05-10T09:01:46.052Z,4.63
2023-05-10T09:04:22.754Z,4.28
2023-05-10T09:06:52.084Z,7.10
2023-05-10T09:09:20.826Z,3.78
2023-05-10T09:11:51.571Z,7.50
2023-05-10T09:14:21.720Z,2.42
2023-05-10T09:16:51.100Z,1.90
2023-05-10T09:19:20.556Z,2.72
2023-05-10T09:21:51.144Z,1.92
2023-05-10T09:24:34.578Z,5.72
2023-05-10T09:27:04.399Z,6.35
2023-05-10T09:29:43.782Z,2.63
2023-05-10T09:32:13.844Z,5.75
2023-05-10T09:34:42.413Z,2.50
2023-05-10T09:37:10.792Z,6.75
2023-05-10T09:39:43.276Z,5.55
2023-05-10T09:42:14.240Z,4.78
2023-05-10T09:45:03.468Z,10.85
2023-05-10T09:47:36.280Z,7.93
2023-05-10T09:50:14.951Z,2.95
2023-05-10T09:52:48.839Z,3.00
2023-05-10T09:55:19.005Z,1.90
2023-05-10T10:00:57.211Z,3.20
2023-05-10T10:03:25.589Z,7.93
2023-05-10T10:06:03.392Z,4.22
2023-05-10T10:08:48.088Z,5.13
2023-05-10T10:11:17.561Z,6.88
2023-05-10T10:13:54.333Z,4.28
2023-05-10T10:16:22.638Z,3.80
2023-05-10T10:18:50.914Z,4.97
2023-05-10T10:21:19.789Z,7.43
2023-05-10T10:23:49.890Z,3.88
2023-05-10T10:27:10.563Z,7.22
2023-05-10T10:29:59.518Z,3.78
2023-05-10T10:33:29.095Z,5.03
2023-05-10T10:36:42.681Z,4.55
2023-05-10T10:42:47.653Z,3.65
2023-05-10T10:45:28.455Z,4.68
2023-05-10T10:48:22.080Z,3.25
2023-05-10T10:51:01.950Z,8.30
2023-05-10T10:54:20.803Z,4.03
2023-05-10T10:57:27.641Z,3.40
2023-05-10T11:00:21.238Z,5.47
2023-05-10T11:03:15.139Z,2.53
2023-05-10T11:05:54.929Z,3.72
2023-05-10T11:08:36.421Z,3.05
2023-05-10T11:11:15.175Z,2.45
2023-05-10T11:16:57.309Z,2.80
2023-05-10T11:19:33.875Z,8.15
2023-05-10T11:22:05.990Z,3.05
2023-05-10T11:24:37.534Z,4.15
2023-05-10T11:27:05.736Z,9.10
2023-05-10T11:29:34.460Z,4.80
2023-05-10T11:32:09.421Z,3.28
2023-05-10T11:34:38.880Z,2.83
2023-05-10T11:37:06.900Z,4.57
2023-05-10T11:39:46.374Z,3.72
2023-05-10T11:42:14.780Z,4.15
2023-05-10T11:44:47.486Z,4.30
2023-05-10T11:47:19.459Z,1.98
2023-05-10T11:49:52.329Z,2.10
2023-05-10T11:52:21.905Z,3.78
2023-05-10T11:54:55.332Z,2.58
2023-05-10T11:57:29.342Z,4.20
2023-05-10T12:00:01.840Z,2.80
2023-05-10T12:02:31.739Z,2.92
2023-05-10T12:05:20.039Z,5.45
2023-05-10T12:07:50.624Z,3.88
2023-05-10T12:10:20.412Z,3.13
2023-05-10T12:12:54.150Z,3.47
2023-05-10T12:15:32.973Z,3.83
2023-05-10T12:18:02.494Z,5.38
2023-05-10T12:20:31.073Z,2.58
2023-05-10T12:23:05.185Z,5.00
2023-05-10T12:25:37.010Z,2.70
2023-05-10T12:28:30.699Z,10.93
2023-05-10T12:31:01.369Z,4.70
2023-05-10T12:33:48.710Z,5.65
2023-05-10T12:36:44.415Z,3.58
2023-05-10T12:39:12.865Z,3.30
2023-05-10T12:41:43.472Z,2.13
2023-05-10T12:44:12.148Z,2.60
2023-05-10T12:46:42.133Z,4.10
2023-05-10T12:49:11.022Z,5.55
2023-05-10T12:51:39.311Z,5.28
2023-05-10T12:54:17.857Z,6.68
2023-05-10T12:56:46.233Z,3.85
2023-05-10T12:59:30.279Z,2.70
2023-05-10T13:02:02.636Z,3.08
2023-05-10T13:04:32.462Z,1.95
2023-05-10T13:07:16.097Z,4.68
2023-05-10T13:09:49.171Z,5.00
2023-05-10T13:12:20.445Z,4.00
2023-05-10T13:14:48.716Z,7.72
2023-05-10T13:17:18.048Z,6.35
2023-05-10T13:19:47.473Z,4.63
2023-05-10T13:22:25.822Z,9.85
2023-05-10T13:25:45.220Z,8.98
2023-05-10T13:28:13.804Z,11.68
2023-05-10T13:30:41.945Z,4.28
2023-05-10T13:33:09.974Z,5.60
2023-05-10T13:38:53.028Z,10.40
2023-05-10T13:41:30.178Z,5.03
2023-05-10T13:44:03.209Z,6.10
2023-05-10T13:46:32.254Z,5.72
2023-05-10T13:49:01.989Z,6.80
2023-05-10T13:51:43.335Z,3.30
2023-05-10T13:54:21.080Z,4.45
2023-05-10T13:57:03.097Z,3.20
2023-05-10T13:59:32.963Z,8.02
2023-05-10T14:02:03.793Z,4.15
2023-05-10T14:04:40.373Z,5.57
2023-05-10T14:09:45.019Z,4.57
2023-05-10T14:12:13.282Z,3.75
2023-05-10T14:14:43.417Z,6.72
2023-05-10T14:17:15.859Z,5.45
2023-05-10T14:19:46.708Z,3.10
2023-05-10T14:22:15.348Z,2.17
2023-05-10T14:25:18.633Z,6.00
2023-05-10T14:27:48.390Z,4.90
2023-05-10T14:30:17.435Z,6.65
2023-05-10T14:33:05.972Z,4.97
2023-05-10T14:35:35.099Z,6.75
2023-05-10T14:38:04.753Z,4.75
2023-05-10T14:40:35.627Z,5.88
2023-05-10T14:43:04.164Z,12.20
2023-05-10T14:45:33.896Z,3.95
2023-05-10T14:48:05.939Z,5.72
2023-05-10T14:50:36.672Z,3.95
2023-05-10T14:53:07.101Z,4.30
2023-05-10T14:55:37.049Z,3.55
2023-05-10T14:58:04.994Z,3.78
2023-05-10T15:00:37.849Z,5.88
2023-05-10T15:03:17.525Z,5.72
2023-05-10T15:05:46.368Z,4.70
2023-05-10T15:08:15.564Z,3.67
2023-05-10T15:10:45.077Z,4.55
2023-05-10T15:13:17.687Z,9.48
2023-05-10T15:15:48.524Z,7.57
2023-05-10T15:19:17.114Z,5.38
2023-05-10T15:22:06.646Z,9.07
2023-05-10T15:24:35.366Z,3.40
2023-05-10T15:27:04.787Z,3.30
2023-05-10T15:29:35.401Z,4.88
2023-05-10T15:32:07.107Z,4.40
2023-05-10T15:34:38.201Z,2.13
2023-05-10T15:37:06.524Z,6.78
2023-05-10T15:39:35.322Z,4.55
2023-05-10T15:42:04.406Z,3.33
2023-05-10T15:44:36.099Z,7.43
2023-05-10T15:47:05.811Z,8.13
2023-05-10T15:49:36.346Z,4.55
2023-05-10T15:52:04.492Z,4.70
2023-05-10T15:54:36.179Z,6.60
2023-05-10T15:57:07.345Z,6.75
2023-05-10T15:59:55.354Z,4.15
2023-05-10T16:02:46.515Z,5.57
2023-05-10T16:05:17.675Z,3.92
2023-05-10T16:07:49.788Z,5.75
2023-05-10T16:10:17.940Z,6.65
2023-05-10T16:12:47.026Z,5.88
2023-05-10T16:15:24.668Z,6.47
2023-05-10T16:17:54.575Z,6.90
2023-05-10T16:20:25.146Z,4.85
2023-05-10T16:22:55.902Z,11.27
2023-05-10T16:25:24.681Z,15.02
2023-05-10T16:27:54.382Z,5.53
2023-05-10T16:30:24.693Z,5.20
2023-05-10T16:32:54.446Z,25.02
2023-05-10T16:35:24.689Z,5.10
2023-05-10T16:37:54.756Z,6.10
2023-05-10T16:40:24.386Z,6.97
2023-05-10T16:42:52.908Z,7.22
2023-05-10T16:45:22.969Z,6.05
2023-05-10T16:47:54.060Z,6.32
2023-05-10T16:50:22.930Z,8.30
2023-05-10T16:52:51.210Z,8.48
2023-05-10T16:55:19.749Z,7.90
2023-05-10T16:57:48.174Z,6.70
2023-05-10T17:00:42.196Z,7.00
2023-05-10T17:03:32.526Z,8.32
2023-05-10T17:06:01.228Z,10.55
2023-05-10T17:08:29.515Z,10.13
2023-05-10T17:11:01.160Z,4.97
2023-05-10T17:13:32.400Z,10.00
2023-05-10T17:16:04.194Z,5.88
2023-05-10T17:18:34.283Z,7.07
2023-05-10T17:21:18.084Z,7.55
2023-05-10T17:24:00.494Z,7.78
2023-05-10T17:26:32.393Z,5.93
2023-05-10T17:29:04.232Z,11.88
2023-05-10T17:31:34.397Z,9.10
2023-05-10T17:34:05.294Z,7.63
2023-05-10T17:36:34.972Z,13.38
2023-05-10T17:39:03.504Z,9.00
2023-05-10T17:41:33.972Z,12.55
2023-05-10T17:44:02.482Z,11.20
2023-05-10T17:46:33.099Z,9.73
2023-05-10T17:49:02.505Z,14.43
2023-05-10T17:51:33.310Z,17.65
2023-05-10T17:54:02.569Z,10.18
2023-05-10T17:56:36.279Z,18.38
2023-05-10T17:59:05.930Z,15.23
2023-05-10T18:01:38.145Z,14.25
2023-05-10T18:04:08.203Z,31.33
2023-05-10T18:06:41.831Z,20.70
2023-05-10T18:09:10.428Z,29.85
2023-05-10T18:11:40.245Z,27.23
2023-05-10T18:14:08.841Z,32.75
2023-05-10T18:16:37.721Z,58.67
2023-05-10T18:19:06.097Z,42.35
2023-05-10T18:21:34.881Z,49.53
2023-05-10T18:24:05.728Z,63.42
2023-05-10T18:26:34.027Z,68.55
2023-05-10T18:29:02.459Z,74.05
2023-05-10T18:31:52.434Z,82.43
2023-05-10T18:34:22.433Z,73.88
2023-05-10T18:37:14.835Z,74.75
2023-05-10T18:39:43.204Z,70.78
2023-05-10T18:42:11.905Z,68.22
2023-05-10T18:45:04.781Z,48.85
2023-05-10T18:47:52.914Z,61.97
2023-05-10T18:50:25.742Z,53.05
2023-05-10T18:52:56.964Z,44.20
2023-05-10T18:55:28.622Z,50.42
2023-05-10T18:57:57.087Z,54.55
2023-05-10T19:00:29.997Z,51.45
2023-05-10T19:02:58.491Z,57.80
2023-05-10T19:05:35.386Z,63.55
2023-05-10T19:08:13.139Z,49.33
2023-05-10T19:10:43.227Z,40.83
2023-05-10T19:13:18.507Z,41.53
2023-05-10T19:15:48.193Z,34.60
2023-05-10T19:18:18.866Z,30.77
2023-05-10T19:20:50.381Z,31.55
2023-05-10T19:23:22.052Z,28.77
2023-05-10T19:25:53.964Z,28.35
2023-05-10T19:28:25.107Z,25.55
2023-05-10T19:30:55.094Z,24.65
2023-05-10T19:33:29.821Z,21.60
2023-05-10T19:35:58.776Z,30.63
2023-05-10T19:38:34.822Z,23.83
2023-05-10T19:41:05.453Z,23.23
2023-05-10T19:43:35.224Z,26.67
2023-05-10T19:46:07.475Z,27.55
2023-05-10T19:48:42.325Z,25.80
2023-05-10T19:53:56.087Z,21.20
2023-05-10T19:56:24.387Z,26.60
2023-05-10T19:58:53.549Z,20.73
2023-05-10T20:01:22.220Z,20.58
2023-05-10T20:03:56.394Z,19.25
2023-05-10T20:06:30.210Z,31.52
2023-05-10T20:09:01.669Z,20.25
2023-05-10T20:11:31.516Z,19.38
2023-05-10T20:14:00.410Z,23.08
2023-05-10T20:16:48.718Z,17.75
2023-05-10T20:19:19.776Z,18.98
2023-05-10T20:21:52.245Z,24.33
2023-05-10T20:24:23.701Z,20.60
2023-05-10T20:26:52.574Z,19.73
2023-05-10T20:29:20.772Z,19.77
2023-05-10T20:31:49.097Z,19.95
2023-05-10T20:34:17.780Z,25.13
2023-05-10T20:36:49.956Z,19.98
2023-05-10T20:39:19.344Z,19.45
2023-05-10T20:41:47.588Z,19.20
2023-05-10T20:44:16.387Z,21.75
2023-05-10T20:46:45.465Z,15.60
2023-05-10T20:49:17.881Z,19.67
2023-05-10T20:51:50.646Z,15.15
2023-05-10T20:54:25.380Z,16.83
2023-05-10T20:57:00.236Z,14.40
2023-05-10T20:59:28.754Z,19.40
2023-05-10T21:02:00.590Z,18.83
2023-05-10T21:04:35.560Z,15.38
2023-05-10T21:07:04.603Z,14.97
2023-05-10T21:09:35.580Z,16.60
2023-05-10T21:12:15.348Z,14.70
2023-05-10T21:14:44.510Z,17.60
2023-05-10T21:17:19.440Z,17.95
2023-05-10T21:19:50.900Z,17.10
2023-05-10T21:22:19.107Z,16.88
2023-05-10T21:24:47.394Z,15.88
2023-05-10T21:27:18.843Z,17.75
2023-05-10T21:29:49.519Z,18.67
2023-05-10T21:32:21.502Z,19.75
2023-05-10T21:34:52.789Z,19.35
2023-05-10T21:37:21.765Z,27.27
2023-05-10T21:40:02.058Z,19.33
2023-05-10T21:42:33.184Z,19.92
2023-05-10T21:45:01.774Z,15.38
2023-05-10T21:47:30.276Z,18.10
2023-05-10T21:49:58.536Z,14.90
2023-05-10T21:52:27.137Z,20.27
2023-05-10T21:54:56.666Z,19.10
2023-05-10T21:57:25.060Z,13.05
2023-05-10T21:59:54.580Z,15.20
2023-05-10T22:02:24.247Z,18.50
2023-05-10T22:04:52.338Z,26.67
2023-05-10T22:07:20.838Z,16.05
2023-05-10T22:09:49.323Z,24.45
2023-05-10T22:12:18.861Z,21.77
2023-05-10T22:14:50.027Z,17.00
2023-05-10T22:19:52.196Z,26.63
2023-05-10T22:22:22.230Z,17.40
2023-05-10T22:24:50.719Z,26.05
2023-05-10T22:27:20.675Z,22.13
2023-05-10T22:29:56.894Z,24.73
2023-05-10T22:32:25.006Z,26.15
2023-05-10T22:35:01.628Z,18.00
2023-05-10T22:37:29.994Z,17.48
2023-05-10T22:39:59.357Z,14.15
2023-05-10T22:42:27.848Z,16.20
2023-05-10T22:44:56.038Z,16.20
2023-05-10T22:47:25.811Z,19.23
2023-05-10T22:49:57.068Z,14.65
2023-05-10T22:52:26.510Z,21.38
2023-05-10T22:54:55.259Z,18.95
2023-05-10T22:57:23.497Z,14.63
2023-05-10T22:59:51.822Z,18.20
2023-05-10T23:02:20.341Z,19.90
2023-05-10T23:04:48.814Z,18.40
2023-05-10T23:07:19.402Z,17.65
2023-05-10T23:09:50.136Z,19.05
2023-05-10T23:12:18.375Z,22.77
2023-05-10T23:14:49.734Z,14.40
2023-05-10T23:17:17.843Z,19.10
2023-05-10T23:19:52.667Z,12.90
2023-05-10T23:22:21.617Z,11.65
2023-05-10T23:24:49.576Z,12.07
2023-05-10T23:27:18.082Z,15.25
2023-05-10T23:29:46.062Z,10.02
2023-05-10T23:32:14.142Z,14.35
2023-05-10T23:34:42.590Z,12.57
2023-05-10T23:37:10.592Z,15.65
2023-05-10T23:39:39.035Z,16.65
2023-05-10T23:42:10.712Z,13.02
2023-05-10T23:44:38.881Z,14.15
2023-05-10T23:47:07.466Z,13.07
2023-05-10T23:49:36.610Z,15.40
2023-05-10T23:52:05.194Z,14.88
2023-05-10T23:54:33.659Z,11.02
2023-05-10T23:57:41.295Z,17.88
